This is the latest recevied weather packets stored in our database for station/object PE1RXF-13. If no packets are shown the sender has not sent any weather packets the latest 10 day(s).
| Time | Temp. | Humidity | Pressure | Rain* | Wind** | Luminosity | Snow |
|---|---|---|---|---|---|---|---|
| 1787945353 | 15° C | 99% | 1006.8 hPa | 0 mm | - | 0 W/m² | - |
| 1787944250 | 15° C | 99% | 1006.4 hPa | 0 mm | - | 0 W/m² | - |
| 1787943147 | 15° C | 99% | 1006.4 hPa | 0 mm | - | 0 W/m² | - |
| 1787942044 | 15° C | 99% | 1006.3 hPa | 0 mm | - | 0 W/m² | - |
| 1787940941 | 15° C | 99% | 1006.2 hPa | 0 mm | - | 3 W/m² | - |
| 1787938737 | 15.56° C | 99% | 1006 hPa | 5.59 mm | - | 10 W/m² | - |
| 1787937632 | 16.11° C | 99% | 1006 hPa | 5.59 mm | - | 28 W/m² | - |
| 1787936529 | 16.11° C | 99% | 1005.8 hPa | 5.59 mm | - | 11 W/m² | - |
| 1787935426 | 19.44° C | 99% | 1005.6 hPa | 0 mm | - | 1 W/m² | - |
| 1787934323 | 20.56° C | 99% | 1005.6 hPa | 0 mm | - | 23 W/m² | - |
| 1787933220 | 21.11° C | 99% | 1005.6 hPa | 0 mm | - | 43 W/m² | - |
| 1787932117 | 21.67° C | 99% | 1005.5 hPa | 0 mm | - | 75 W/m² | - |
| 1787931021 | 20.56° C | 99% | 1005.7 hPa | 0 mm | - | 45 W/m² | - |
| 1787929911 | 20° C | 99% | 1005.7 hPa | 0 mm | - | 51 W/m² | - |
| 1787928808 | 20.56° C | 99% | 1005.8 hPa | 0 mm | - | 32 W/m² | - |
| 1787927705 | 21.11° C | 96% | 1006.1 hPa | 0 mm | - | 50 W/m² | - |
| 1787925499 | 23.89° C | 83% | 1006.1 hPa | 0 mm | - | 198 W/m² | - |
| 1787924396 | 24.44° C | 79% | 1006.2 hPa | 0 mm | - | 206 W/m² | - |
| 1787923293 | 21.11° C | 99% | 1006 hPa | 0 mm | - | 88 W/m² | - |
| 1787922190 | 20.56° C | 99% | 1006 hPa | 0 mm | - | 46 W/m² | - |
| 1787921087 | 21.11° C | 99% | 1006.2 hPa | 0 mm | - | 41 W/m² | - |
| 1787919984 | 20.56° C | 99% | 1006.3 hPa | 0 mm | - | 45 W/m² | - |
| 1787918881 | 20.56° C | 99% | 1006.1 hPa | 0 mm | - | 37 W/m² | - |
| 1787917778 | 20.56° C | 99% | 1006.3 hPa | 0 mm | - | 36 W/m² | - |
| 1787916675 | 21.67° C | 99% | 1006 hPa | 0 mm | - | 92 W/m² | - |
* Rain latest hour (hover to see other rain measurements)
** Current wind speed in m/s (hover to see current wind gust speed)